Rain Showers Current Weather (METAR) For Manchester Airport

All times on the weather descriptions are local

Observed at 10:50 - (24 mins ago)

Rain Showers

10°C

Rain Showers
Clouds: Few Clouds at 2,700ft, Scattered Clouds at 3,100ft
Wind: 290° at 20 knots, gusting 33 knots
Visibility: Greater than 10km
QNH: 1001
Dew Point: 5°C
Runway in Use: Runways 23L/R

Sunrise Today: 07:46
Sunset Today: 18:01

Forecast Weather (TAF) For Manchester Airport

Issued at 01:00 - (9 days 13 hrs ago)


Runway in Use: Likely Runways 23L/R

Forecast valid until 01:00 on Friday

METAR/TAF RAW METAR / TAF

EGCC 210950Z 29020G33KT 9999 FEW027CB SCT031 10/05 Q1001 TEMPO SHRA

Weather Widget

Put weather from any of our airports on your website with our weather widget.

Find Another Search

Airport Search


Please Wait Please Wait - Loading
Close
Close

Login

Username:

Password:

Remember Me:

Remember me on this computer

Forgotten your password? Get a reset password sent to your registered e-mail address

Close

User Private Message

Subject:

Message: